sensor_id;sensor_type;location;lat;lon;timestamp;temperature;humidity
21906;DHT22;11117;48.644;9.006;2023-02-25T00:00:29;3.10;99.90
21906;DHT22;11117;48.644;9.006;2023-02-25T00:02:54;3.00;99.90
21906;DHT22;11117;48.644;9.006;2023-02-25T00:05:20;3.10;99.90
21906;DHT22;11117;48.644;9.006;2023-02-25T00:07:46;3.10;99.90
21906;DHT22;11117;48.644;9.006;2023-02-25T00:10:12;3.00;99.90
21906;DHT22;11117;48.644;9.006;2023-02-25T00:12:38;3.00;99.90
21906;DHT22;11117;48.644;9.006;2023-02-25T00:15:04;3.00;99.90
21906;DHT22;11117;48.644;9.006;2023-02-25T00:17:31;3.00;99.90
21906;DHT22;11117;48.644;9.006;2023-02-25T00:19:57;2.90;99.90
21906;DHT22;11117;48.644;9.006;2023-02-25T00:22:23;3.00;99.90
21906;DHT22;11117;48.644;9.006;2023-02-25T00:24:56;3.00;99.90
21906;DHT22;11117;48.644;9.006;2023-02-25T00:27:22;3.00;99.90
21906;DHT22;11117;48.644;9.006;2023-02-25T00:29:52;3.00;99.90
21906;DHT22;11117;48.644;9.006;2023-02-25T00:32:18;3.00;99.90
21906;DHT22;11117;48.644;9.006;2023-02-25T00:34:44;2.90;99.90
21906;DHT22;11117;48.644;9.006;2023-02-25T00:37:09;2.90;99.90
21906;DHT22;11117;48.644;9.006;2023-02-25T00:39:35;2.90;99.90
21906;DHT22;11117;48.644;9.006;2023-02-25T00:42:00;3.00;99.90
21906;DHT22;11117;48.644;9.006;2023-02-25T00:44:26;3.00;99.90
21906;DHT22;11117;48.644;9.006;2023-02-25T00:46:51;3.10;99.90
21906;DHT22;11117;48.644;9.006;2023-02-25T00:49:17;3.10;99.90
21906;DHT22;11117;48.644;9.006;2023-02-25T00:51:42;3.10;99.90
21906;DHT22;11117;48.644;9.006;2023-02-25T00:54:08;3.10;99.90
21906;DHT22;11117;48.644;9.006;2023-02-25T00:56:33;3.10;99.90
21906;DHT22;11117;48.644;9.006;2023-02-25T00:58:59;3.10;99.90
21906;DHT22;11117;48.644;9.006;2023-02-25T01:01:27;3.10;99.90
21906;DHT22;11117;48.644;9.006;2023-02-25T01:03:55;3.20;99.90
21906;DHT22;11117;48.644;9.006;2023-02-25T01:06:21;3.30;99.90
21906;DHT22;11117;48.644;9.006;2023-02-25T01:08:47;3.40;99.90
21906;DHT22;11117;48.644;9.006;2023-02-25T01:11:18;3.40;99.90
21906;DHT22;11117;48.644;9.006;2023-02-25T01:13:47;3.50;99.90
21906;DHT22;11117;48.644;9.006;2023-02-25T01:16:24;3.50;99.90
21906;DHT22;11117;48.644;9.006;2023-02-25T01:18:51;3.50;99.90
21906;DHT22;11117;48.644;9.006;2023-02-25T01:21:25;3.50;99.90
21906;DHT22;11117;48.644;9.006;2023-02-25T01:23:55;3.40;99.90
21906;DHT22;11117;48.644;9.006;2023-02-25T01:26:21;3.40;99.90
21906;DHT22;11117;48.644;9.006;2023-02-25T01:28:47;3.30;99.90
21906;DHT22;11117;48.644;9.006;2023-02-25T01:31:17;3.40;99.90
21906;DHT22;11117;48.644;9.006;2023-02-25T01:33:44;3.40;99.90
21906;DHT22;11117;48.644;9.006;2023-02-25T01:36:09;3.50;99.90
21906;DHT22;11117;48.644;9.006;2023-02-25T01:38:35;3.50;99.90
21906;DHT22;11117;48.644;9.006;2023-02-25T01:41:02;3.60;99.90
21906;DHT22;11117;48.644;9.006;2023-02-25T01:43:28;3.50;99.90
21906;DHT22;11117;48.644;9.006;2023-02-25T01:45:54;3.50;99.90
21906;DHT22;11117;48.644;9.006;2023-02-25T01:48:22;3.50;99.90
21906;DHT22;11117;48.644;9.006;2023-02-25T01:50:58;3.40;99.90
21906;DHT22;11117;48.644;9.006;2023-02-25T01:53:30;3.40;99.90
21906;DHT22;11117;48.644;9.006;2023-02-25T01:55:58;3.40;99.90
21906;DHT22;11117;48.644;9.006;2023-02-25T01:58:25;3.40;99.90
21906;DHT22;11117;48.644;9.006;2023-02-25T02:00:51;3.30;99.90
21906;DHT22;11117;48.644;9.006;2023-02-25T02:03:17;3.30;99.90
21906;DHT22;11117;48.644;9.006;2023-02-25T02:06:28;3.30;99.90
21906;DHT22;11117;48.644;9.006;2023-02-25T02:08:47;3.20;99.90
21906;DHT22;11117;48.644;9.006;2023-02-25T02:11:14;3.20;99.90
21906;DHT22;11117;48.644;9.006;2023-02-25T02:13:43;3.20;99.90
21906;DHT22;11117;48.644;9.006;2023-02-25T02:16:22;3.30;99.90
21906;DHT22;11117;48.644;9.006;2023-02-25T02:18:56;3.20;99.90
21906;DHT22;11117;48.644;9.006;2023-02-25T02:21:59;3.10;99.90
21906;DHT22;11117;48.644;9.006;2023-02-25T02:24:53;3.10;99.90
21906;DHT22;11117;48.644;9.006;2023-02-25T02:27:31;3.10;99.90
21906;DHT22;11117;48.644;9.006;2023-02-25T02:38:06;3.30;99.90
21906;DHT22;11117;48.644;9.006;2023-02-25T02:40:40;3.40;99.90
21906;DHT22;11117;48.644;9.006;2023-02-25T02:43:13;3.40;99.90
21906;DHT22;11117;48.644;9.006;2023-02-25T02:45:49;3.40;99.90
21906;DHT22;11117;48.644;9.006;2023-02-25T02:48:27;3.50;99.90
21906;DHT22;11117;48.644;9.006;2023-02-25T02:50:58;3.60;99.90
21906;DHT22;11117;48.644;9.006;2023-02-25T02:53:30;3.70;99.90
21906;DHT22;11117;48.644;9.006;2023-02-25T02:55:59;3.70;99.90
21906;DHT22;11117;48.644;9.006;2023-02-25T02:58:40;3.70;99.90
21906;DHT22;11117;48.644;9.006;2023-02-25T03:01:16;3.60;99.90
21906;DHT22;11117;48.644;9.006;2023-02-25T03:03:48;3.60;99.90
21906;DHT22;11117;48.644;9.006;2023-02-25T03:06:19;3.40;99.90
21906;DHT22;11117;48.644;9.006;2023-02-25T03:08:58;3.40;99.90
21906;DHT22;11117;48.644;9.006;2023-02-25T03:11:26;3.30;99.90
21906;DHT22;11117;48.644;9.006;2023-02-25T03:13:52;3.30;99.90
21906;DHT22;11117;48.644;9.006;2023-02-25T03:16:27;3.10;99.90
21906;DHT22;11117;48.644;9.006;2023-02-25T03:19:10;3.00;99.90
21906;DHT22;11117;48.644;9.006;2023-02-25T03:21:41;3.10;99.90
21906;DHT22;11117;48.644;9.006;2023-02-25T03:24:12;3.10;99.90
21906;DHT22;11117;48.644;9.006;2023-02-25T03:26:40;3.10;99.90
21906;DHT22;11117;48.644;9.006;2023-02-25T03:29:05;3.00;99.90
21906;DHT22;11117;48.644;9.006;2023-02-25T03:31:40;3.00;99.90
21906;DHT22;11117;48.644;9.006;2023-02-25T03:34:08;2.90;99.90
21906;DHT22;11117;48.644;9.006;2023-02-25T03:36:53;3.00;99.90
21906;DHT22;11117;48.644;9.006;2023-02-25T03:39:27;2.90;99.90
21906;DHT22;11117;48.644;9.006;2023-02-25T03:41:56;2.90;99.90
21906;DHT22;11117;48.644;9.006;2023-02-25T03:44:26;2.90;99.90
21906;DHT22;11117;48.644;9.006;2023-02-25T03:46:54;3.00;99.90
21906;DHT22;11117;48.644;9.006;2023-02-25T03:49:24;3.00;99.90
21906;DHT22;11117;48.644;9.006;2023-02-25T03:51:52;3.00;99.90
21906;DHT22;11117;48.644;9.006;2023-02-25T03:54:18;3.00;99.90
21906;DHT22;11117;48.644;9.006;2023-02-25T03:56:46;3.10;99.90
21906;DHT22;11117;48.644;9.006;2023-02-25T03:59:13;3.10;99.90
21906;DHT22;11117;48.644;9.006;2023-02-25T04:01:41;3.10;99.90
21906;DHT22;11117;48.644;9.006;2023-02-25T04:04:09;3.30;99.90
21906;DHT22;11117;48.644;9.006;2023-02-25T04:06:34;3.30;99.90
21906;DHT22;11117;48.644;9.006;2023-02-25T04:09:00;3.20;99.90
21906;DHT22;11117;48.644;9.006;2023-02-25T04:11:25;3.30;99.90
21906;DHT22;11117;48.644;9.006;2023-02-25T04:13:51;3.30;99.90
21906;DHT22;11117;48.644;9.006;2023-02-25T04:16:16;3.20;99.90
21906;DHT22;11117;48.644;9.006;2023-02-25T04:18:42;3.20;99.90
21906;DHT22;11117;48.644;9.006;2023-02-25T04:21:20;3.20;99.90
21906;DHT22;11117;48.644;9.006;2023-02-25T04:23:46;3.20;99.90
21906;DHT22;11117;48.644;9.006;2023-02-25T04:26:12;3.10;99.90
21906;DHT22;11117;48.644;9.006;2023-02-25T04:28:37;3.10;99.90
21906;DHT22;11117;48.644;9.006;2023-02-25T04:31:03;3.00;99.90
21906;DHT22;11117;48.644;9.006;2023-02-25T04:33:29;2.90;99.90
21906;DHT22;11117;48.644;9.006;2023-02-25T04:35:55;2.80;99.90
21906;DHT22;11117;48.644;9.006;2023-02-25T04:38:20;2.80;99.90
21906;DHT22;11117;48.644;9.006;2023-02-25T04:40:46;2.70;99.90
21906;DHT22;11117;48.644;9.006;2023-02-25T04:43:11;2.60;99.90
21906;DHT22;11117;48.644;9.006;2023-02-25T04:45:37;2.60;99.90
21906;DHT22;11117;48.644;9.006;2023-02-25T04:48:03;2.50;99.90
21906;DHT22;11117;48.644;9.006;2023-02-25T04:50:28;2.50;99.90
21906;DHT22;11117;48.644;9.006;2023-02-25T04:52:54;2.40;99.90
21906;DHT22;11117;48.644;9.006;2023-02-25T04:55:20;2.30;99.90
21906;DHT22;11117;48.644;9.006;2023-02-25T04:57:45;2.30;99.90
21906;DHT22;11117;48.644;9.006;2023-02-25T05:00:15;2.20;99.90
21906;DHT22;11117;48.644;9.006;2023-02-25T05:02:41;2.20;99.90
21906;DHT22;11117;48.644;9.006;2023-02-25T05:05:07;2.10;99.90
21906;DHT22;11117;48.644;9.006;2023-02-25T05:07:32;2.20;99.90
21906;DHT22;11117;48.644;9.006;2023-02-25T05:09:58;2.30;99.90
21906;DHT22;11117;48.644;9.006;2023-02-25T05:12:23;2.30;99.90
21906;DHT22;11117;48.644;9.006;2023-02-25T05:14:49;2.20;99.90
21906;DHT22;11117;48.644;9.006;2023-02-25T05:17:14;2.20;99.90
21906;DHT22;11117;48.644;9.006;2023-02-25T05:19:40;2.10;99.90
21906;DHT22;11117;48.644;9.006;2023-02-25T05:22:07;2.10;99.90
21906;DHT22;11117;48.644;9.006;2023-02-25T05:24:33;2.00;99.90
21906;DHT22;11117;48.644;9.006;2023-02-25T05:26:58;2.00;99.90
21906;DHT22;11117;48.644;9.006;2023-02-25T05:29:24;2.00;99.90
21906;DHT22;11117;48.644;9.006;2023-02-25T05:31:49;2.00;99.90
21906;DHT22;11117;48.644;9.006;2023-02-25T05:34:15;1.90;99.90
21906;DHT22;11117;48.644;9.006;2023-02-25T05:36:41;1.90;99.90
21906;DHT22;11117;48.644;9.006;2023-02-25T05:39:07;1.80;99.90
21906;DHT22;11117;48.644;9.006;2023-02-25T05:41:32;1.90;99.90
21906;DHT22;11117;48.644;9.006;2023-02-25T05:43:58;1.90;99.90
21906;DHT22;11117;48.644;9.006;2023-02-25T05:46:23;1.90;99.90
21906;DHT22;11117;48.644;9.006;2023-02-25T05:48:49;1.90;99.90
21906;DHT22;11117;48.644;9.006;2023-02-25T05:51:17;1.90;99.90
21906;DHT22;11117;48.644;9.006;2023-02-25T05:53:43;1.80;99.90
21906;DHT22;11117;48.644;9.006;2023-02-25T05:56:12;1.80;99.90
21906;DHT22;11117;48.644;9.006;2023-02-25T05:58:37;1.80;99.90
21906;DHT22;11117;48.644;9.006;2023-02-25T06:01:08;1.80;99.90
21906;DHT22;11117;48.644;9.006;2023-02-25T06:03:34;1.80;99.90
21906;DHT22;11117;48.644;9.006;2023-02-25T06:06:00;1.90;99.90
21906;DHT22;11117;48.644;9.006;2023-02-25T06:08:25;1.90;99.90
21906;DHT22;11117;48.644;9.006;2023-02-25T06:10:50;1.80;99.90
21906;DHT22;11117;48.644;9.006;2023-02-25T06:13:16;1.80;99.90
21906;DHT22;11117;48.644;9.006;2023-02-25T06:15:42;1.80;99.90
21906;DHT22;11117;48.644;9.006;2023-02-25T06:18:08;1.80;99.90
21906;DHT22;11117;48.644;9.006;2023-02-25T06:20:34;1.80;99.90
21906;DHT22;11117;48.644;9.006;2023-02-25T06:23:00;1.80;99.90
21906;DHT22;11117;48.644;9.006;2023-02-25T06:25:26;1.80;99.90
21906;DHT22;11117;48.644;9.006;2023-02-25T06:27:52;1.80;99.90
21906;DHT22;11117;48.644;9.006;2023-02-25T06:30:17;1.80;99.90
21906;DHT22;11117;48.644;9.006;2023-02-25T06:32:43;1.80;99.90
21906;DHT22;11117;48.644;9.006;2023-02-25T06:35:09;1.80;99.90
21906;DHT22;11117;48.644;9.006;2023-02-25T06:37:34;1.80;99.90
21906;DHT22;11117;48.644;9.006;2023-02-25T06:40:00;1.70;99.90
21906;DHT22;11117;48.644;9.006;2023-02-25T06:42:25;1.80;99.90
21906;DHT22;11117;48.644;9.006;2023-02-25T06:44:51;1.80;99.90
21906;DHT22;11117;48.644;9.006;2023-02-25T06:47:16;1.80;99.90
21906;DHT22;11117;48.644;9.006;2023-02-25T06:49:42;1.90;99.90
21906;DHT22;11117;48.644;9.006;2023-02-25T06:52:07;1.90;99.90
21906;DHT22;11117;48.644;9.006;2023-02-25T06:54:33;1.90;99.90
21906;DHT22;11117;48.644;9.006;2023-02-25T06:56:58;1.90;99.90
21906;DHT22;11117;48.644;9.006;2023-02-25T06:59:24;2.00;99.90
21906;DHT22;11117;48.644;9.006;2023-02-25T07:01:49;1.90;99.90
21906;DHT22;11117;48.644;9.006;2023-02-25T07:04:17;1.90;99.90
21906;DHT22;11117;48.644;9.006;2023-02-25T07:06:43;2.00;99.90
21906;DHT22;11117;48.644;9.006;2023-02-25T07:09:09;2.10;99.90
21906;DHT22;11117;48.644;9.006;2023-02-25T07:11:34;2.20;99.90
21906;DHT22;11117;48.644;9.006;2023-02-25T07:14:04;2.20;99.90
21906;DHT22;11117;48.644;9.006;2023-02-25T07:16:30;2.20;99.90
21906;DHT22;11117;48.644;9.006;2023-02-25T07:18:56;2.30;99.90
21906;DHT22;11117;48.644;9.006;2023-02-25T07:21:22;2.40;99.90
21906;DHT22;11117;48.644;9.006;2023-02-25T07:23:48;2.40;99.90
21906;DHT22;11117;48.644;9.006;2023-02-25T07:26:15;2.40;99.90
21906;DHT22;11117;48.644;9.006;2023-02-25T07:28:42;2.40;99.90
21906;DHT22;11117;48.644;9.006;2023-02-25T07:31:13;2.30;99.90
21906;DHT22;11117;48.644;9.006;2023-02-25T07:33:39;2.30;99.90
21906;DHT22;11117;48.644;9.006;2023-02-25T07:36:04;2.30;99.90
21906;DHT22;11117;48.644;9.006;2023-02-25T07:38:30;2.30;99.90
21906;DHT22;11117;48.644;9.006;2023-02-25T07:40:55;2.30;99.90
21906;DHT22;11117;48.644;9.006;2023-02-25T07:43:21;2.40;99.90
21906;DHT22;11117;48.644;9.006;2023-02-25T07:45:48;2.40;99.90
21906;DHT22;11117;48.644;9.006;2023-02-25T07:48:14;2.40;99.90
21906;DHT22;11117;48.644;9.006;2023-02-25T07:50:39;2.40;99.90
21906;DHT22;11117;48.644;9.006;2023-02-25T07:53:05;2.50;99.90
21906;DHT22;11117;48.644;9.006;2023-02-25T07:55:31;2.60;99.90
21906;DHT22;11117;48.644;9.006;2023-02-25T07:57:56;2.60;99.90
21906;DHT22;11117;48.644;9.006;2023-02-25T08:00:22;2.60;99.90
21906;DHT22;11117;48.644;9.006;2023-02-25T08:02:47;2.60;99.90
21906;DHT22;11117;48.644;9.006;2023-02-25T08:05:13;2.70;99.90
21906;DHT22;11117;48.644;9.006;2023-02-25T08:07:38;2.80;99.90
21906;DHT22;11117;48.644;9.006;2023-02-25T08:10:04;2.80;99.90
21906;DHT22;11117;48.644;9.006;2023-02-25T08:12:30;2.80;99.90
21906;DHT22;11117;48.644;9.006;2023-02-25T08:14:55;2.90;99.90
21906;DHT22;11117;48.644;9.006;2023-02-25T08:17:21;3.00;99.90
21906;DHT22;11117;48.644;9.006;2023-02-25T08:19:46;3.20;99.90
21906;DHT22;11117;48.644;9.006;2023-02-25T08:22:12;3.30;99.90
21906;DHT22;11117;48.644;9.006;2023-02-25T08:24:38;3.50;99.90
21906;DHT22;11117;48.644;9.006;2023-02-25T08:27:04;3.60;99.90
21906;DHT22;11117;48.644;9.006;2023-02-25T08:29:30;3.70;99.90
21906;DHT22;11117;48.644;9.006;2023-02-25T08:31:55;3.90;99.90
21906;DHT22;11117;48.644;9.006;2023-02-25T08:34:21;4.00;99.90
21906;DHT22;11117;48.644;9.006;2023-02-25T08:36:46;3.90;99.90
21906;DHT22;11117;48.644;9.006;2023-02-25T08:39:12;3.60;99.90
21906;DHT22;11117;48.644;9.006;2023-02-25T08:41:37;3.50;99.90
21906;DHT22;11117;48.644;9.006;2023-02-25T08:44:03;3.40;99.90
21906;DHT22;11117;48.644;9.006;2023-02-25T08:46:31;3.20;99.90
21906;DHT22;11117;48.644;9.006;2023-02-25T08:48:57;3.20;99.90
21906;DHT22;11117;48.644;9.006;2023-02-25T08:51:24;3.00;99.90
21906;DHT22;11117;48.644;9.006;2023-02-25T08:53:50;3.00;99.90
21906;DHT22;11117;48.644;9.006;2023-02-25T08:56:17;3.00;99.90
21906;DHT22;11117;48.644;9.006;2023-02-25T08:58:43;2.90;99.90
21906;DHT22;11117;48.644;9.006;2023-02-25T09:01:11;2.90;99.90
21906;DHT22;11117;48.644;9.006;2023-02-25T09:03:38;3.00;99.90
21906;DHT22;11117;48.644;9.006;2023-02-25T09:06:03;3.00;99.90
21906;DHT22;11117;48.644;9.006;2023-02-25T09:08:29;3.00;99.90
21906;DHT22;11117;48.644;9.006;2023-02-25T09:10:54;3.10;99.90
21906;DHT22;11117;48.644;9.006;2023-02-25T09:13:20;3.20;99.90
21906;DHT22;11117;48.644;9.006;2023-02-25T09:15:46;3.30;99.90
21906;DHT22;11117;48.644;9.006;2023-02-25T09:18:19;3.50;99.90
21906;DHT22;11117;48.644;9.006;2023-02-25T09:20:49;3.50;99.90
21906;DHT22;11117;48.644;9.006;2023-02-25T09:23:14;3.40;99.90
21906;DHT22;11117;48.644;9.006;2023-02-25T09:25:40;3.30;99.90
21906;DHT22;11117;48.644;9.006;2023-02-25T09:28:05;3.30;99.90
21906;DHT22;11117;48.644;9.006;2023-02-25T09:30:31;3.20;99.90
21906;DHT22;11117;48.644;9.006;2023-02-25T09:32:56;3.20;99.90
21906;DHT22;11117;48.644;9.006;2023-02-25T09:35:22;3.30;99.90
21906;DHT22;11117;48.644;9.006;2023-02-25T09:37:47;3.20;99.90
21906;DHT22;11117;48.644;9.006;2023-02-25T09:40:15;3.30;99.90
21906;DHT22;11117;48.644;9.006;2023-02-25T09:43:02;3.40;99.90
21906;DHT22;11117;48.644;9.006;2023-02-25T09:45:32;3.50;99.90
21906;DHT22;11117;48.644;9.006;2023-02-25T09:48:00;3.70;99.90
21906;DHT22;11117;48.644;9.006;2023-02-25T09:50:42;4.10;99.90
21906;DHT22;11117;48.644;9.006;2023-02-25T09:55:46;4.10;99.90
21906;DHT22;11117;48.644;9.006;2023-02-25T09:58:43;4.10;99.90
21906;DHT22;11117;48.644;9.006;2023-02-25T10:04:05;4.00;99.90
21906;DHT22;11117;48.644;9.006;2023-02-25T10:06:40;3.90;99.90
21906;DHT22;11117;48.644;9.006;2023-02-25T10:12:17;3.70;99.90
21906;DHT22;11117;48.644;9.006;2023-02-25T10:14:58;3.90;99.90
21906;DHT22;11117;48.644;9.006;2023-02-25T10:23:37;4.10;99.90
21906;DHT22;11117;48.644;9.006;2023-02-25T10:26:01;4.50;99.90
21906;DHT22;11117;48.644;9.006;2023-02-25T10:28:29;4.70;99.90
21906;DHT22;11117;48.644;9.006;2023-02-25T10:31:05;4.70;99.90
21906;DHT22;11117;48.644;9.006;2023-02-25T10:33:36;5.00;99.90
21906;DHT22;11117;48.644;9.006;2023-02-25T10:36:33;4.80;99.90
21906;DHT22;11117;48.644;9.006;2023-02-25T10:39:01;4.80;99.90
21906;DHT22;11117;48.644;9.006;2023-02-25T10:41:27;4.80;99.90
21906;DHT22;11117;48.644;9.006;2023-02-25T10:43:54;4.50;99.90
21906;DHT22;11117;48.644;9.006;2023-02-25T10:49:21;4.40;99.90
21906;DHT22;11117;48.644;9.006;2023-02-25T10:52:02;4.40;99.90
21906;DHT22;11117;48.644;9.006;2023-02-25T10:54:30;4.40;99.90
21906;DHT22;11117;48.644;9.006;2023-02-25T10:56:59;4.40;99.90
21906;DHT22;11117;48.644;9.006;2023-02-25T10:59:37;4.30;99.90
21906;DHT22;11117;48.644;9.006;2023-02-25T11:02:17;4.30;99.90
21906;DHT22;11117;48.644;9.006;2023-02-25T11:04:44;4.30;99.90
21906;DHT22;11117;48.644;9.006;2023-02-25T11:10:15;4.30;99.90
21906;DHT22;11117;48.644;9.006;2023-02-25T11:12:50;4.40;99.90
21906;DHT22;11117;48.644;9.006;2023-02-25T11:17:51;4.70;99.90
21906;DHT22;11117;48.644;9.006;2023-02-25T11:20:25;4.70;99.90
21906;DHT22;11117;48.644;9.006;2023-02-25T11:22:54;5.00;99.90
21906;DHT22;11117;48.644;9.006;2023-02-25T11:25:36;5.20;99.90
21906;DHT22;11117;48.644;9.006;2023-02-25T11:28:02;5.00;99.90
21906;DHT22;11117;48.644;9.006;2023-02-25T11:30:36;5.20;99.90
21906;DHT22;11117;48.644;9.006;2023-02-25T11:33:14;5.10;99.90
21906;DHT22;11117;48.644;9.006;2023-02-25T11:35:43;5.10;99.90
21906;DHT22;11117;48.644;9.006;2023-02-25T11:38:18;5.10;99.90
21906;DHT22;11117;48.644;9.006;2023-02-25T11:40:48;5.10;99.90
21906;DHT22;11117;48.644;9.006;2023-02-25T11:48:59;5.30;99.90
21906;DHT22;11117;48.644;9.006;2023-02-25T11:51:33;5.00;99.90
21906;DHT22;11117;48.644;9.006;2023-02-25T11:54:28;4.80;99.90
21906;DHT22;11117;48.644;9.006;2023-02-25T11:57:06;4.90;99.90
21906;DHT22;11117;48.644;9.006;2023-02-25T11:59:37;4.80;99.90
21906;DHT22;11117;48.644;9.006;2023-02-25T12:02:25;5.00;99.90
21906;DHT22;11117;48.644;9.006;2023-02-25T12:26:21;4.70;99.90
21906;DHT22;11117;48.644;9.006;2023-02-25T12:37:03;4.70;99.90
21906;DHT22;11117;48.644;9.006;2023-02-25T12:42:52;4.60;99.90
21906;DHT22;11117;48.644;9.006;2023-02-25T12:45:32;4.50;99.90
21906;DHT22;11117;48.644;9.006;2023-02-25T12:48:44;4.50;99.90
21906;DHT22;11117;48.644;9.006;2023-02-25T12:51:15;4.40;99.90
21906;DHT22;11117;48.644;9.006;2023-02-25T12:54:04;4.50;99.90
21906;DHT22;11117;48.644;9.006;2023-02-25T12:56:47;4.50;99.90
21906;DHT22;11117;48.644;9.006;2023-02-25T13:02:28;4.50;99.90
21906;DHT22;11117;48.644;9.006;2023-02-25T13:11:35;4.20;99.90
21906;DHT22;11117;48.644;9.006;2023-02-25T13:30:47;3.90;99.90
21906;DHT22;11117;48.644;9.006;2023-02-25T13:44:26;3.40;99.90
21906;DHT22;11117;48.644;9.006;2023-02-25T14:06:42;3.60;99.90
21906;DHT22;11117;48.644;9.006;2023-02-25T14:14:59;3.80;99.90
21906;DHT22;11117;48.644;9.006;2023-02-25T14:22:55;4.10;99.90
21906;DHT22;11117;48.644;9.006;2023-02-25T14:25:33;4.10;99.90
21906;DHT22;11117;48.644;9.006;2023-02-25T14:31:10;4.20;99.90
21906;DHT22;11117;48.644;9.006;2023-02-25T14:39:42;4.10;99.90
21906;DHT22;11117;48.644;9.006;2023-02-25T14:47:41;4.10;99.90
21906;DHT22;11117;48.644;9.006;2023-02-25T14:50:38;4.40;99.90
21906;DHT22;11117;48.644;9.006;2023-02-25T14:53:11;4.50;99.90
21906;DHT22;11117;48.644;9.006;2023-02-25T14:58:20;4.40;99.90
21906;DHT22;11117;48.644;9.006;2023-02-25T15:14:57;4.90;99.90
21906;DHT22;11117;48.644;9.006;2023-02-25T15:23:10;4.60;99.90
21906;DHT22;11117;48.644;9.006;2023-02-25T15:28:45;4.60;99.90
21906;DHT22;11117;48.644;9.006;2023-02-25T15:31:24;4.60;99.90
21906;DHT22;11117;48.644;9.006;2023-02-25T15:33:50;4.60;99.90
21906;DHT22;11117;48.644;9.006;2023-02-25T15:38:45;4.60;99.90
21906;DHT22;11117;48.644;9.006;2023-02-25T15:51:52;4.20;99.90
21906;DHT22;11117;48.644;9.006;2023-02-25T15:56:53;4.10;99.90
21906;DHT22;11117;48.644;9.006;2023-02-25T16:04:53;4.10;99.90
21906;DHT22;11117;48.644;9.006;2023-02-25T16:07:20;4.10;99.90
21906;DHT22;11117;48.644;9.006;2023-02-25T16:09:54;4.10;99.90
21906;DHT22;11117;48.644;9.006;2023-02-25T16:12:21;4.00;99.90
21906;DHT22;11117;48.644;9.006;2023-02-25T16:14:50;4.00;99.90
21906;DHT22;11117;48.644;9.006;2023-02-25T16:17:19;4.00;99.90
21906;DHT22;11117;48.644;9.006;2023-02-25T16:19:56;3.90;99.90
21906;DHT22;11117;48.644;9.006;2023-02-25T16:22:27;3.90;99.90
21906;DHT22;11117;48.644;9.006;2023-02-25T16:24:54;3.80;99.90
21906;DHT22;11117;48.644;9.006;2023-02-25T16:33:25;3.70;99.90
21906;DHT22;11117;48.644;9.006;2023-02-25T16:36:17;3.60;99.90
21906;DHT22;11117;48.644;9.006;2023-02-25T16:39:01;3.60;99.90
21906;DHT22;11117;48.644;9.006;2023-02-25T16:41:28;3.60;99.90
21906;DHT22;11117;48.644;9.006;2023-02-25T16:43:54;3.70;99.90
21906;DHT22;11117;48.644;9.006;2023-02-25T16:46:22;3.70;99.90
21906;DHT22;11117;48.644;9.006;2023-02-25T16:49:04;3.60;99.90
21906;DHT22;11117;48.644;9.006;2023-02-25T16:51:35;3.60;99.90
21906;DHT22;11117;48.644;9.006;2023-02-25T16:54:32;3.60;99.90
21906;DHT22;11117;48.644;9.006;2023-02-25T16:57:05;3.50;99.90
21906;DHT22;11117;48.644;9.006;2023-02-25T16:59:32;3.50;99.90
21906;DHT22;11117;48.644;9.006;2023-02-25T17:04:47;3.50;99.90
21906;DHT22;11117;48.644;9.006;2023-02-25T17:07:26;3.40;99.90
21906;DHT22;11117;48.644;9.006;2023-02-25T17:10:00;3.30;99.90
21906;DHT22;11117;48.644;9.006;2023-02-25T17:15:06;3.40;99.90
21906;DHT22;11117;48.644;9.006;2023-02-25T17:17:39;3.50;99.90
21906;DHT22;11117;48.644;9.006;2023-02-25T17:20:22;3.50;99.90
21906;DHT22;11117;48.644;9.006;2023-02-25T17:22:49;3.50;99.90
21906;DHT22;11117;48.644;9.006;2023-02-25T17:25:15;3.50;99.90
21906;DHT22;11117;48.644;9.006;2023-02-25T17:27:44;3.50;99.90
21906;DHT22;11117;48.644;9.006;2023-02-25T17:30:40;3.50;99.90
21906;DHT22;11117;48.644;9.006;2023-02-25T17:33:09;3.50;99.90
21906;DHT22;11117;48.644;9.006;2023-02-25T17:35:41;3.50;99.90
21906;DHT22;11117;48.644;9.006;2023-02-25T17:38:12;3.60;99.90
21906;DHT22;11117;48.644;9.006;2023-02-25T17:40:39;3.60;99.90
21906;DHT22;11117;48.644;9.006;2023-02-25T17:43:18;3.60;99.90
21906;DHT22;11117;48.644;9.006;2023-02-25T17:45:55;3.50;99.90
21906;DHT22;11117;48.644;9.006;2023-02-25T17:48:25;3.50;99.90
21906;DHT22;11117;48.644;9.006;2023-02-25T17:50:57;3.60;99.90
21906;DHT22;11117;48.644;9.006;2023-02-25T17:53:54;3.60;99.90
21906;DHT22;11117;48.644;9.006;2023-02-25T17:56:24;3.60;99.90
21906;DHT22;11117;48.644;9.006;2023-02-25T17:58:52;3.50;99.90
21906;DHT22;11117;48.644;9.006;2023-02-25T18:01:30;3.50;99.90
21906;DHT22;11117;48.644;9.006;2023-02-25T18:04:20;3.40;99.90
21906;DHT22;11117;48.644;9.006;2023-02-25T18:06:46;3.20;99.90
21906;DHT22;11117;48.644;9.006;2023-02-25T18:12:05;1.70;99.90
21906;DHT22;11117;48.644;9.006;2023-02-25T18:14:40;1.20;99.90
21906;DHT22;11117;48.644;9.006;2023-02-25T18:17:24;0.90;99.90
21906;DHT22;11117;48.644;9.006;2023-02-25T18:19:50;0.60;99.90
21906;DHT22;11117;48.644;9.006;2023-02-25T18:22:34;0.70;99.90
21906;DHT22;11117;48.644;9.006;2023-02-25T18:25:06;0.60;99.90
21906;DHT22;11117;48.644;9.006;2023-02-25T18:27:33;0.60;99.90
21906;DHT22;11117;48.644;9.006;2023-02-25T18:30:15;0.50;99.90
21906;DHT22;11117;48.644;9.006;2023-02-25T18:32:40;0.40;99.90
21906;DHT22;11117;48.644;9.006;2023-02-25T18:35:06;0.50;99.90
21906;DHT22;11117;48.644;9.006;2023-02-25T18:37:32;0.40;99.90
21906;DHT22;11117;48.644;9.006;2023-02-25T18:39:58;0.30;99.90
21906;DHT22;11117;48.644;9.006;2023-02-25T18:42:24;0.40;99.90
21906;DHT22;11117;48.644;9.006;2023-02-25T18:44:49;0.40;99.90
21906;DHT22;11117;48.644;9.006;2023-02-25T18:47:15;0.40;99.90
21906;DHT22;11117;48.644;9.006;2023-02-25T18:49:41;0.40;99.90
21906;DHT22;11117;48.644;9.006;2023-02-25T18:52:13;0.50;99.90
21906;DHT22;11117;48.644;9.006;2023-02-25T18:54:46;0.40;99.90
21906;DHT22;11117;48.644;9.006;2023-02-25T18:57:20;0.50;99.90
21906;DHT22;11117;48.644;9.006;2023-02-25T18:59:46;0.50;99.90
21906;DHT22;11117;48.644;9.006;2023-02-25T19:02:26;0.50;99.90
21906;DHT22;11117;48.644;9.006;2023-02-25T19:04:52;0.40;99.90
21906;DHT22;11117;48.644;9.006;2023-02-25T19:07:18;0.50;99.90
21906;DHT22;11117;48.644;9.006;2023-02-25T19:09:44;0.40;99.90
21906;DHT22;11117;48.644;9.006;2023-02-25T19:12:13;0.40;99.90
21906;DHT22;11117;48.644;9.006;2023-02-25T19:14:39;0.40;99.90
21906;DHT22;11117;48.644;9.006;2023-02-25T19:17:05;0.30;99.90
21906;DHT22;11117;48.644;9.006;2023-02-25T19:19:31;0.40;99.90
21906;DHT22;11117;48.644;9.006;2023-02-25T19:21:56;0.40;99.90
21906;DHT22;11117;48.644;9.006;2023-02-25T19:24:22;0.40;99.90
21906;DHT22;11117;48.644;9.006;2023-02-25T19:26:48;0.40;99.90
21906;DHT22;11117;48.644;9.006;2023-02-25T19:29:13;0.40;99.90
21906;DHT22;11117;48.644;9.006;2023-02-25T19:31:39;0.40;99.90
21906;DHT22;11117;48.644;9.006;2023-02-25T19:34:04;0.20;99.90